This is the latest recevied weather packets stored in our database for station/object KI5NXU. If no packets are shown the sender has not sent any weather packets the latest 10 day(s).
| Time | Temp. | Humidity | Pressure | Rain* | Wind** | Luminosity | Snow |
|---|---|---|---|---|---|---|---|
| 1777144689 | 31.67° C | 63% | 1004.4 hPa | 0 mm | - | 709 W/m² | - |
| 1777144383 | 31.67° C | 62% | 1004.4 hPa | 0 mm | - | 682 W/m² | - |
| 1777144080 | 31.11° C | 62% | 1004.4 hPa | 0 mm | - | 667 W/m² | - |
| 1777143776 | 31.11° C | 63% | 1004.8 hPa | 0 mm | - | 620 W/m² | - |
| 1777143473 | 31.11° C | 65% | 1004.7 hPa | 0 mm | - | 603 W/m² | - |
| 1777143169 | 30.56° C | 63% | 1004.7 hPa | 0 mm | - | 600 W/m² | - |
| 1777142864 | 31.11° C | 62% | 1005 hPa | 0 mm | - | 632 W/m² | - |
| 1777142562 | 31.11° C | 65% | 1004.8 hPa | 0 mm | - | 661 W/m² | - |
| 1777142260 | 30.56° C | 64% | 1005 hPa | 0 mm | - | 676 W/m² | - |
| 1777141958 | 30.56° C | 65% | 1004.9 hPa | 0 mm | - | 370 W/m² | - |
| 1777141655 | 30.56° C | 65% | 1004.8 hPa | 0 mm | - | 698 W/m² | - |
| 1777141353 | 30.56° C | 64% | 1005.2 hPa | 0 mm | - | 673 W/m² | - |
| 1777141049 | 30.56° C | 65% | 1005.1 hPa | 0 mm | - | 691 W/m² | - |
| 1777140747 | 30° C | 65% | 1005.3 hPa | 0 mm | - | 696 W/m² | - |
| 1777140442 | 30.56° C | 66% | 1005.4 hPa | 0 mm | - | 715 W/m² | - |
| 1777140141 | 30.56° C | 66% | 1005.6 hPa | 0 mm | - | 739 W/m² | - |
| 1777139839 | 29.44° C | 67% | 1005.5 hPa | 0 mm | - | 748 W/m² | - |
| 1777139536 | 29.44° C | 66% | 1005.5 hPa | 0 mm | - | 172 W/m² | - |
| 1777139234 | 29.44° C | 68% | 1005.6 hPa | 0 mm | - | 750 W/m² | - |
| 1777138932 | 29.44° C | 69% | 1005.7 hPa | 0 mm | - | 742 W/m² | - |
| 1777138629 | 29.44° C | 70% | 1005.9 hPa | 0 mm | - | 769 W/m² | - |
| 1777138323 | 30° C | 67% | 1006.1 hPa | 0 mm | - | 416 W/m² | - |
| 1777138020 | 30° C | 65% | 1006 hPa | 0 mm | - | 785 W/m² | - |
| 1777137716 | 28.89° C | 71% | 1005.9 hPa | 0 mm | - | 591 W/m² | - |
| 1777137413 | 30° C | 67% | 1005.9 hPa | 0 mm | - | 650 W/m² | - |
* Rain latest hour (hover to see other rain measurements)
** Current wind speed in m/s (hover to see current wind gust speed)